Virgo Phoenix — 3FMO8 — position and weather

sailwx.info

Track history (hours):
 
Tides and Currents Weather Stations Pressure Air Temp Water Temp Dewpoint Dewpoint Depression Visibility Wind Speed Wind Dir Waves Ship Positions

Virgo Phoenix

Last reported at 2015-Mar-05 15:25 UTC. Time now 2015-Mar-06 02:43 UTC.
Position N 31°02' E 122°17'.

Length 96 m; draft 6.1 m.

Type: Ship (hazmat cat B). MMSI: 370795000.

Date/timePositionNaut miles runAvg speedWind from/ knotsBaromVisibWave heightAir tempDewpointWater temp
2015-Mar-05 15:25N 31°02' E 122°17'910.9
2015-Mar-05 14:34N 31°04' E 122°06'9 9.2
2015-Mar-05 13:33N 31°07' E 121°56'1212.5
2015-Mar-05 12:34N 31°15' E 121°46'1212.2
2015-Mar-05 11:33N 31°23' E 121°35'9 8.9
2015-Mar-05 10:33N 31°29' E 121°27'1211.6
2015-Mar-05 09:33N 31°37' E 121°16'2511.4
2015-Mar-05 07:23N 31°52' E 120°53'1010.2
2015-Mar-05 06:26N 32°00' E 120°48'1011.1
2015-Mar-05 05:33N 32°00' E 120°36'1010.2
2015-Mar-05 04:33N 32°02' E 120°25'1313.3
2015-Mar-05 03:33N 31°56' E 120°11'8 1.5
2015-Mar-04 22:24N 31°57' E 120°02'0 0.0
2015-Mar-04 21:30N 31°57' E 120°02'0 0.0
2015-Mar-04 20:12N 31°57' E 120°02'0 0.0
2015-Mar-04 19:24N 31°57' E 120°02'0 0.0
2015-Mar-04 16:06N 31°57' E 120°02'0 0.0
2015-Mar-04 15:30N 31°57' E 120°02'0 0.0
2015-Mar-04 14:24N 31°57' E 120°02'0 0.0
2015-Mar-04 13:18N 31°57' E 120°02'0 0.0
2015-Mar-04 12:30N 31°57' E 120°02'0 0.0
2015-Mar-04 11:30N 31°57' E 120°02'0 0.1
2015-Mar-04 10:33N 31°57' E 120°02'7 6.0
2015-Mar-04 09:29N 31°56' E 120°10'0 0.0
2015-Mar-04 08:29N 31°56' E 120°10'0 0.0
2015-Mar-04 07:33N 31°56' E 120°10'0 0.0
2015-Mar-04 06:33N 31°56' E 120°10'0 0.1
2015-Mar-04 05:33N 31°56' E 120°10'0 0.0
2015-Mar-04 04:33N 31°56' E 120°10'0 0.0
2015-Mar-04 03:33N 31°56' E 120°10'0 0.0
2015-Mar-04 02:33N 31°56' E 120°10'0 0.0
2015-Mar-04 01:33N 31°56' E 120°10'0 0.4
2015-Mar-04 00:33N 31°56' E 120°10'1010.6
2015-Mar-03 23:33N 31°58' E 120°23'4 3.1
2015-Mar-03 22:26N 31°58' E 120°27'0 0.0
2015-Mar-03 21:33N 31°58' E 120°27'0 0.0
2015-Mar-03 20:33N 31°58' E 120°27'0 0.0
2015-Mar-03 19:32N 31°58' E 120°27'0 0.0
2015-Mar-03 18:32N 31°58' E 120°27'0 0.0
2015-Mar-03 17:26N 31°58' E 120°27'0 0.0
2015-Mar-03 16:32N 31°58' E 120°27'0 0.0
2015-Mar-03 15:32N 31°58' E 120°27'0 0.0
2015-Mar-03 14:33N 31°58' E 120°27'0 0.0
2015-Mar-03 13:32N 31°58' E 120°27'0 0.0
2015-Mar-03 12:27N 31°58' E 120°27'0 0.0
2015-Mar-03 11:32N 31°58' E 120°27'0 0.0
2015-Mar-03 10:20N 31°58' E 120°27'0 0.0
2015-Mar-03 09:26N 31°58' E 120°27'0 0.0
2015-Mar-03 08:32N 31°58' E 120°27'0 0.0
2015-Mar-03 06:26N 31°58' E 120°27'0 0.0
2015-Mar-03 05:32N 31°58' E 120°27'0 0.0
2015-Mar-03 04:32N 31°58' E 120°27'0 0.0
2015-Mar-03 03:32N 31°58' E 120°27'0 0.0
2015-Mar-03 02:32N 31°58' E 120°27'0 0.0
2015-Mar-03 01:33N 31°58' E 120°27'0 0.0
2015-Mar-03 00:33N 31°58' E 120°27'2 0.2
2015-Mar-02 17:06N 31°60' E 120°27'0 0.0
2015-Mar-02 16:30N 31°60' E 120°27'0 0.0
2015-Mar-02 10:30N 31°60' E 120°27'0 0.0
2015-Mar-02 09:30N 31°60' E 120°27'1 0.9
2015-Mar-02 08:33N 32°01' E 120°27'1110.9
2015-Mar-02 07:33N 31°60' E 120°40'1211.5
2015-Mar-02 06:33N 31°56' E 120°52'2512.6
2015-Mar-02 04:33N 31°39' E 121°14'1313.1
2015-Mar-02 03:33N 31°30' E 121°26'9 9.5
2015-Mar-02 02:33N 31°24' E 121°34'9 9.1
2015-Mar-02 01:33N 31°19' E 121°43'1111.2
2015-Mar-02 00:33N 31°10' E 121°51'1211.5
2015-Mar-01 23:33N 31°05' E 122°03'1111.3
2015-Mar-01 22:33N 31°03' E 122°16'  
2015-Feb-26 07:33N 34°59' E 139°32'1211.8
2015-Feb-26 06:33N 35°07' E 139°43'1111.3
2015-Feb-26 05:33N 35°18' E 139°44'9 8.8
2015-Feb-26 04:33N 35°27' E 139°45'0 0.0
2015-Feb-26 03:33N 35°27' E 139°45'0 0.3
2015-Feb-26 02:34N 35°27' E 139°45'4 0.2
2015-Feb-25 05:28N 35°31' E 139°46'5 5.6
2015-Feb-25 04:31N 35°27' E 139°43'0 0.1
2015-Feb-25 03:31N 35°27' E 139°43'0 0.0
2015-Feb-25 02:31N 35°27' E 139°43'0 0.0
2015-Feb-25 01:31N 35°27' E 139°43'1 0.8
2015-Feb-25 00:33N 35°26' E 139°44'1110.6
2015-Feb-24 23:33N 35°16' E 139°46'1312.7
2015-Feb-24 22:33N 35°03' E 139°45'7 1.6
2015-Feb-24 18:15N 34°59' E 139°39'912.8
2015-Feb-24 17:33N 35°07' E 139°43'1211.8
2015-Feb-24 16:33N 35°19' E 139°43'1111.3
2015-Feb-24 15:33N 35°29' E 139°50'7 0.7
2015-Feb-24 04:33N 35°31' E 139°58'4 1.3
2015-Feb-24 01:13N 35°29' E 139°54'812.1
2015-Feb-24 00:33N 35°24' E 139°46'1211.6
2015-Feb-23 23:33N 35°13' E 139°47'  
Track history (hours):
 
Tides and Currents Weather Stations Pressure Air Temp Water Temp Dewpoint Dewpoint Depression Visibility Wind Speed Wind Dir Waves Ship Positions

Virgo Phoenix

Last reported at 2015-Mar-05 15:25 UTC. Time now 2015-Mar-06 02:43 UTC.
Position N 31°02' E 122°17'.

Length 96 m; draft 6.1 m.

Type: Ship (hazmat cat B). MMSI: 370795000.

Date/timePositionNaut miles runAvg speedWind from/ knotsBaromVisibWave heightAir tempDewpointWater temp
2015-Mar-05 15:25N 31°02' E 122°17'910.9
2015-Mar-05 14:34N 31°04' E 122°06'9 9.2
2015-Mar-05 13:33N 31°07' E 121°56'1212.5
2015-Mar-05 12:34N 31°15' E 121°46'1212.2
2015-Mar-05 11:33N 31°23' E 121°35'9 8.9
2015-Mar-05 10:33N 31°29' E 121°27'1211.6
2015-Mar-05 09:33N 31°37' E 121°16'2511.4
2015-Mar-05 07:23N 31°52' E 120°53'1010.2
2015-Mar-05 06:26N 32°00' E 120°48'1011.1
2015-Mar-05 05:33N 32°00' E 120°36'1010.2
2015-Mar-05 04:33N 32°02' E 120°25'1313.3
2015-Mar-05 03:33N 31°56' E 120°11'8 1.5
2015-Mar-04 22:24N 31°57' E 120°02'0 0.0
2015-Mar-04 21:30N 31°57' E 120°02'0 0.0
2015-Mar-04 20:12N 31°57' E 120°02'0 0.0
2015-Mar-04 19:24N 31°57' E 120°02'0 0.0
2015-Mar-04 16:06N 31°57' E 120°02'0 0.0
2015-Mar-04 15:30N 31°57' E 120°02'0 0.0
2015-Mar-04 14:24N 31°57' E 120°02'0 0.0
2015-Mar-04 13:18N 31°57' E 120°02'0 0.0
2015-Mar-04 12:30N 31°57' E 120°02'0 0.0
2015-Mar-04 11:30N 31°57' E 120°02'0 0.1
2015-Mar-04 10:33N 31°57' E 120°02'7 6.0
2015-Mar-04 09:29N 31°56' E 120°10'0 0.0
2015-Mar-04 08:29N 31°56' E 120°10'0 0.0
2015-Mar-04 07:33N 31°56' E 120°10'0 0.0
2015-Mar-04 06:33N 31°56' E 120°10'0 0.1
2015-Mar-04 05:33N 31°56' E 120°10'0 0.0
2015-Mar-04 04:33N 31°56' E 120°10'0 0.0
2015-Mar-04 03:33N 31°56' E 120°10'0 0.0
2015-Mar-04 02:33N 31°56' E 120°10'0 0.0
2015-Mar-04 01:33N 31°56' E 120°10'0 0.4
2015-Mar-04 00:33N 31°56' E 120°10'1010.6
2015-Mar-03 23:33N 31°58' E 120°23'4 3.1
2015-Mar-03 22:26N 31°58' E 120°27'0 0.0
2015-Mar-03 21:33N 31°58' E 120°27'0 0.0
2015-Mar-03 20:33N 31°58' E 120°27'0 0.0
2015-Mar-03 19:32N 31°58' E 120°27'0 0.0
2015-Mar-03 18:32N 31°58' E 120°27'0 0.0
2015-Mar-03 17:26N 31°58' E 120°27'0 0.0
2015-Mar-03 16:32N 31°58' E 120°27'0 0.0
2015-Mar-03 15:32N 31°58' E 120°27'0 0.0
2015-Mar-03 14:33N 31°58' E 120°27'0 0.0
2015-Mar-03 13:32N 31°58' E 120°27'0 0.0
2015-Mar-03 12:27N 31°58' E 120°27'0 0.0
2015-Mar-03 11:32N 31°58' E 120°27'0 0.0
2015-Mar-03 10:20N 31°58' E 120°27'0 0.0
2015-Mar-03 09:26N 31°58' E 120°27'0 0.0
2015-Mar-03 08:32N 31°58' E 120°27'0 0.0
2015-Mar-03 06:26N 31°58' E 120°27'0 0.0
2015-Mar-03 05:32N 31°58' E 120°27'0 0.0
2015-Mar-03 04:32N 31°58' E 120°27'0 0.0
2015-Mar-03 03:32N 31°58' E 120°27'0 0.0
2015-Mar-03 02:32N 31°58' E 120°27'0 0.0
2015-Mar-03 01:33N 31°58' E 120°27'0 0.0
2015-Mar-03 00:33N 31°58' E 120°27'2 0.2
2015-Mar-02 17:06N 31°60' E 120°27'0 0.0
2015-Mar-02 16:30N 31°60' E 120°27'0 0.0
2015-Mar-02 10:30N 31°60' E 120°27'0 0.0
2015-Mar-02 09:30N 31°60' E 120°27'1 0.9
2015-Mar-02 08:33N 32°01' E 120°27'1110.9
2015-Mar-02 07:33N 31°60' E 120°40'1211.5
2015-Mar-02 06:33N 31°56' E 120°52'2512.6
2015-Mar-02 04:33N 31°39' E 121°14'1313.1
2015-Mar-02 03:33N 31°30' E 121°26'9 9.5
2015-Mar-02 02:33N 31°24' E 121°34'9 9.1
2015-Mar-02 01:33N 31°19' E 121°43'1111.2
2015-Mar-02 00:33N 31°10' E 121°51'1211.5
2015-Mar-01 23:33N 31°05' E 122°03'1111.3
2015-Mar-01 22:33N 31°03' E 122°16'  
2015-Feb-26 07:33N 34°59' E 139°32'1211.8
2015-Feb-26 06:33N 35°07' E 139°43'1111.3
2015-Feb-26 05:33N 35°18' E 139°44'9 8.8
2015-Feb-26 04:33N 35°27' E 139°45'0 0.0
2015-Feb-26 03:33N 35°27' E 139°45'0 0.3
2015-Feb-26 02:34N 35°27' E 139°45'4 0.2
2015-Feb-25 05:28N 35°31' E 139°46'5 5.6
2015-Feb-25 04:31N 35°27' E 139°43'0 0.1
2015-Feb-25 03:31N 35°27' E 139°43'0 0.0
2015-Feb-25 02:31N 35°27' E 139°43'0 0.0
2015-Feb-25 01:31N 35°27' E 139°43'1 0.8
2015-Feb-25 00:33N 35°26' E 139°44'1110.6
2015-Feb-24 23:33N 35°16' E 139°46'1312.7
2015-Feb-24 22:33N 35°03' E 139°45'7 1.6
2015-Feb-24 18:15N 34°59' E 139°39'912.8
2015-Feb-24 17:33N 35°07' E 139°43'1211.8
2015-Feb-24 16:33N 35°19' E 139°43'1111.3
2015-Feb-24 15:33N 35°29' E 139°50'7 0.7
2015-Feb-24 04:33N 35°31' E 139°58'4 1.3
2015-Feb-24 01:13N 35°29' E 139°54'812.1
2015-Feb-24 00:33N 35°24' E 139°46'1211.6
2015-Feb-23 23:33N 35°13' E 139°47'  

Dump ship's entire track history